Latest Weather Observations for Daly Waters

IDD60801

Issued at 12:31 pm CST Thursday 30 June 2016 (issued every 30 minutes, with the page automatically refreshed every 10 minutes)

About weather observations | Map of weather stations | Latest weather observations for NT | Other Formats
Station Details ID: 014626 Name: DALY WATERS AIRSTRIP Lat: -16.26 Lon: 133.38 Height: 209.84 m
Data from the previous 72 hours. | See also: Recent months at Daly Waters
Date/Time
CST
Temp
°C
App
Temp
°C
Dew
Point
°C
Rel
Hum
%
Delta-T
°C
Wind Press
QNH
hPa
Press
MSL
hPa
Rain since
9am
mm
Dir  Spd
km/h
Gust
km/h
Spd
kts
Gust
kts
30/12:30pm 29.8 27.4 5.1 21 13.0 NE 7 17 4 9 1018.8 1018.0 0.0
30/12:00pm 28.7 26.5 6.1 24 12.0 E 7 17 4 9 1019.3 1018.5 0.0
30/11:30am 28.4 26.1 5.9 24 11.9 E 7 17 4 9 1019.9 1019.2 0.0
30/11:00am 27.6 24.7 6.4 26 11.2 ESE 11 20 6 11 1020.3 1019.6 0.0
30/10:30am 27.0 24.7 5.9 26 11.0 E 7 11 4 6 1020.6 1019.9 0.0
30/10:00am 24.9 22.6 4.6 27 10.3 E 6 9 3 5 1020.8 1020.1 0.0
30/09:30am 23.1 20.7 4.1 29 9.4 ESE 6 9 3 5 1020.7 1020.0 0.0
30/09:00am 20.9 17.9 4.0 33 8.2 ESE 9 13 5 7 1020.5 1019.8 0.0
30/08:30am 17.8 15.0 3.3 38 6.8 SE 7 13 4 7 1020.3 1019.6 0.0
30/08:00am 14.1 11.6 3.8 50 4.7 SE 6 7 3 4 1020.1 1019.4 0.0
30/07:30am 9.1 6.8 2.7 64 2.7 SSE 4 6 2 3 1019.7 1019.0 0.0
30/07:00am 9.8 7.3 1.7 57 3.4 SSE 4 6 2 3 1019.4 1018.6 0.0
30/06:30am 11.7 9.1 1.1 48 4.5 SSE 4 6 2 3 1019.1 1018.3 0.0
30/06:00am 13.4 10.5 1.4 44 5.2 SSE 6 9 3 5 1018.8 1018.0 0.0
30/05:30am 13.0 10.1 2.6 49 4.6 SE 7 11 4 6 1018.6 1017.8 0.0
30/05:00am 8.3 5.7 3.0 69 2.3 SSE 6 7 3 4 1018.6 1017.8 0.0
30/04:30am 7.9 5.7 3.2 72 2.0 S 4 4 2 2 1018.6 1017.8 0.0
30/04:00am 8.3 6.1 3.2 70 2.2 S 4 4 2 2 1018.6 1017.8 0.0
30/03:30am 8.8 6.5 3.0 67 2.5 SSE 4 4 2 2 1018.6 1017.8 0.0
30/03:00am 9.5 7.6 2.8 63 2.9 SE 2 4 1 2 1018.7 1017.9 0.0
30/02:30am 10.2 7.8 2.1 57 3.5 SE 4 6 2 3 1018.8 1018.0 0.0
30/02:00am 11.4 8.9 1.4 50 4.3 SSE 4 6 2 3 1018.9 1018.1 0.0
30/01:30am 13.9 10.9 0.9 41 5.6 SE 6 7 3 4 1019.0 1018.2 0.0
30/01:00am 14.6 11.9 0.5 38 6.1 SE 4 7 2 4 1019.1 1018.3 0.0
30/12:30am 14.9 11.9 1.1 39 6.0 SE 6 9 3 5 1019.0 1018.2 0.0
30/12:00am 14.9 11.9 1.1 39 6.0 SE 6 7 3 4 1019.2 1018.4 0.0
 
Date/Time
CST
Temp
°C
App
Temp
°C
Dew
Point
°C
Rel
Hum
%
Delta-T
°C
Wind Press
QNH
hPa
Press
MSL
hPa
Rain since
9am
mm
Dir  Spd
km/h
Gust
km/h
Spd
kts
Gust
kts
29/11:30pm 13.6 10.9 0.6 41 5.5 SE 4 6 2 3 1019.2 1018.4 0.0
29/11:00pm 16.8 14.0 -0.4 31 7.4 ESE 4 6 2 3 1019.2 1018.4 0.0
29/10:30pm 18.1 14.8 0.3 30 7.8 SSE 7 11 4 6 1018.8 1018.0 0.0
29/10:00pm 17.8 14.7 1.3 33 7.4 SSE 7 9 4 5 1018.7 1017.9 0.0
29/09:30pm 16.1 13.9 3.2 42 5.9 S 4 7 2 4 1018.4 1017.7 0.0
29/09:00pm 14.3 12.0 4.9 53 4.4 S 6 7 3 4 1018.2 1017.5 0.0
29/08:30pm 15.1 13.2 4.8 50 4.9 S 4 7 2 4 1017.7 1017.0 0.0
29/08:00pm 16.2 14.4 5.2 48 5.3 SSE 4 6 2 3 1017.4 1016.7 0.0
29/07:30pm 16.5 14.4 5.8 49 5.2 S 6 6 3 3 1016.9 1016.2 0.0
29/07:00pm 17.7 15.5 5.3 44 6.0 S 6 6 3 3 1016.4 1015.7 0.0
29/06:30pm 20.6 18.6 4.2 34 8.0 S 4 6 2 3 1016.0 1015.3 0.0
29/06:25pm 21.6 19.7 4.7 33 8.4 S 4 4 2 2 1015.9 1015.2 0.0
29/06:00pm 26.6 24.7 5.0 25 11.1 SSE 4 6 2 3 1015.8 1015.1 0.0
29/05:30pm 29.1 26.6 3.9 20 12.9 SSE 6 7 3 4 1015.7 1015.0 0.0
29/05:00pm 30.1 28.0 4.0 19 13.5 SSE 4 9 2 5 1015.5 1014.8 0.0
29/04:30pm 30.8 28.7 3.8 18 14.0 E 4 9 2 5 1015.3 1014.5 0.0
29/04:00pm 30.1 27.6 4.0 19 13.5 ESE 6 13 3 7 1015.4 1014.6 0.0
29/03:30pm 30.3 27.9 4.1 19 13.6 E 6 11 3 6 1015.5 1014.8 0.0
29/03:00pm 30.2 27.6 4.0 19 13.5 ENE 7 22 4 12 1015.6 1014.9 0.0
29/02:30pm 29.7 27.2 3.6 19 13.3 ENE 6 11 3 6 1015.9 1015.2 0.0
29/02:00pm 29.1 26.2 2.4 18 13.3 S 7 13 4 7 1016.1 1015.4 0.0
29/01:30pm 28.6 25.8 2.0 18 13.1 SE 6 13 3 7 1016.7 1016.0 0.0
29/01:00pm 27.4 24.5 2.5 20 12.3 SSE 7 17 4 9 1017.4 1016.7 0.0
29/12:30pm 26.6 23.7 2.5 21 11.8 SSE 7 15 4 8 1018.2 1017.5 0.0
29/12:00pm 26.3 23.5 2.3 21 11.7 E 6 11 3 6 1019.1 1018.3 0.0
29/11:30am 24.3 21.2 1.2 22 10.9 E 7 13 4 7 1019.7 1019.0 0.0
29/11:00am 23.6 20.8 1.9 24 10.3 ESE 6 13 3 7 1020.2 1019.5 0.0
29/10:30am 22.4 19.3 1.4 25 9.8 ESE 7 11 4 6 1020.5 1019.8 0.0
29/10:00am 20.6 17.4 1.0 27 9.0 SE 7 13 4 7 1020.8 1020.1 0.0
29/09:30am 19.3 15.7 0.8 29 8.3 ESE 9 17 5 9 1020.9 1020.2 0.0
29/09:00am 18.1 14.5 0.7 31 7.7 ESE 9 17 5 9 1021.2 1020.5 0.0
29/08:30am 16.0 12.2 1.7 38 6.4 ESE 11 17 6 9 1021.0 1020.3 0.0
29/08:00am 13.9 10.6 2.2 45 5.2 SE 9 15 5 8 1020.9 1020.2 0.0
29/07:30am 11.4 8.7 2.7 55 3.8 SE 6 11 3 6 1020.9 1020.2 0.0
29/07:00am 10.0 7.2 2.1 58 3.4 SSE 6 7 3 4 1020.7 1020.0 0.0
29/06:30am 10.7 8.3 2.0 55 3.7 SSE 4 6 2 3 1020.5 1019.8 0.0
29/06:00am 11.3 8.5 2.3 54 3.9 SSE 6 9 3 5 1020.2 1019.5 0.0
29/05:30am 10.9 8.3 3.0 58 3.5 SSE 6 9 3 5 1020.0 1019.3 0.0
29/05:00am 10.3 8.0 2.9 60 3.2 SSE 4 6 2 3 1019.9 1019.2 0.0
29/04:30am 11.4 8.7 2.7 55 3.8 SE 6 7 3 4 1019.7 1019.0 0.0
29/04:00am 13.4 11.1 2.9 49 4.7 SE 4 7 2 4 1019.7 1019.0 0.0
29/03:30am 14.5 11.9 3.0 46 5.2 SE 6 7 3 4 1019.5 1018.7 0.0
29/03:00am 15.5 12.7 3.3 44 5.6 SE 7 15 4 8 1019.4 1018.6 0.0
29/02:30am 15.9 13.2 3.7 44 5.7 SE 7 15 4 8 1019.5 1018.7 0.0
29/02:00am 16.1 13.5 4.2 45 5.6 SE 7 13 4 7 1019.5 1018.7 0.0
29/01:30am 16.9 14.0 4.6 44 5.9 SE 9 19 5 10 1019.5 1018.7 0.0
29/01:00am 17.2 14.5 5.5 46 5.7 SE 9 15 5 8 1019.6 1018.8 0.0
29/12:30am 17.8 14.9 6.3 47 5.7 SE 11 22 6 12 1019.7 1019.0 0.0
29/12:00am 18.2 15.8 7.0 48 5.7 SE 9 17 5 9 1019.6 1018.8 0.0
 
Date/Time
CST
Temp
°C
App
Temp
°C
Dew
Point
°C
Rel
Hum
%
Delta-T
°C
Wind Press
QNH
hPa
Press
MSL
hPa
Rain since
9am
mm
Dir  Spd
km/h
Gust
km/h
Spd
kts
Gust
kts
28/11:30pm 18.8 16.5 7.3 47 5.9 SE 9 17 5 9 1019.6 1018.8 0.0
28/11:00pm 19.8 17.2 7.9 46 6.2 SE 11 20 6 11 1019.5 1018.7 0.0
28/10:30pm 20.1 18.0 8.1 46 6.3 SE 9 17 5 9 1019.5 1018.7 0.0
28/10:00pm 20.5 18.5 8.5 46 6.3 SE 9 15 5 8 1019.5 1018.7 0.0
28/09:30pm 20.6 19.0 8.6 46 6.3 SSE 7 13 4 7 1019.2 1018.4 0.0
28/09:00pm 20.5 18.8 8.5 46 6.3 SSE 7 11 4 6 1019.1 1018.3 0.0
28/08:30pm 21.3 19.7 8.6 44 6.7 SE 7 15 4 8 1018.8 1018.0 0.0
28/08:00pm 21.1 19.4 8.4 44 6.7 SSE 7 9 4 5 1018.3 1017.6 0.0
28/07:30pm 21.7 20.0 8.2 42 7.1 SSE 7 9 4 5 1017.9 1017.2 0.0
28/07:00pm 21.7 20.0 7.5 40 7.4 SSE 6 7 3 4 1017.7 1017.0 0.0
28/06:30pm 23.6 21.7 6.8 34 8.8 SSE 6 9 3 5 1017.3 1016.6 0.0
28/06:00pm 26.4 24.7 7.4 30 10.2 SE 6 11 3 6 1017.0 1016.3 0.0
28/05:30pm 28.3 26.4 7.5 27 11.3 SE 7 13 4 7 1016.7 1016.0 0.0
28/05:00pm 29.1 26.9 7.7 26 11.7 SE 9 15 5 8 1016.4 1015.7 0.0
28/04:30pm 29.5 26.6 8.0 26 11.8 SE 13 20 7 11 1016.3 1015.6 0.0
28/04:00pm 30.0 27.8 7.8 25 12.2 SE 9 19 5 10 1016.3 1015.6 0.0
28/03:30pm 29.8 27.7 8.2 26 11.9 SSE 9 15 5 8 1016.3 1015.6 0.0
28/03:00pm 29.7 28.0 8.2 26 11.9 SE 7 17 4 9 1016.5 1015.8 0.0
28/02:30pm 28.9 26.9 8.6 28 11.2 SSE 9 19 5 10 1016.8 1016.1 0.0
28/02:00pm 27.9 25.4 8.2 29 10.8 SSE 11 19 6 10 1017.1 1016.4 0.0
28/01:30pm 27.1 24.9 8.0 30 10.4 SSE 9 17 5 9 1017.7 1017.0 0.0
28/01:00pm 26.4 24.5 7.4 30 10.2 ESE 7 15 4 8 1018.3 1017.6 0.0
28/12:30pm 25.0 22.6 7.2 32 9.4 SE 9 15 5 8 1019.1 1018.3 0.0
28/12:00pm 24.6 22.3 7.3 33 9.1 SE 9 17 5 9 1019.6 1018.8 0.0
28/11:30am 23.4 20.5 6.7 34 8.7 SSE 11 17 6 9 1020.1 1019.4 0.0
28/11:00am 22.5 19.9 6.3 35 8.3 SE 9 17 5 9 1020.5 1019.8 0.0
28/10:30am 21.9 19.0 6.6 37 7.8 SE 11 17 6 9 1020.7 1020.0 0.0
28/10:00am 20.3 17.4 6.3 40 7.1 SSE 11 20 6 11 1020.7 1020.0 0.0
28/09:30am 19.2 15.9 6.3 43 6.5 SE 13 20 7 11 1020.6 1019.9 0.0
28/09:00am 18.0 14.2 5.9 45 6.0 SE 15 24 8 13 1020.4 1019.7 0.0
28/08:30am 17.1 13.7 6.0 48 5.5 SE 13 22 7 12 1020.0 1019.3 0.0
28/08:00am 16.0 13.0 5.9 51 4.9 SE 11 20 6 11 1019.5 1018.7 0.0
28/07:30am 15.1 12.5 6.1 55 4.4 SE 9 20 5 11 1019.2 1018.4 0.0
28/07:00am 15.0 12.1 6.3 56 4.2 SE 11 17 6 9 1018.7 1017.9 0.0
28/06:30am 15.3 12.8 6.6 56 4.3 SE 9 15 5 8 1018.3 1017.6 0.0
28/06:00am 15.5 13.1 7.0 57 4.2 SE 9 17 5 9 1018.0 1017.3 0.0
28/05:30am 15.9 13.1 7.1 56 4.4 SE 11 19 6 10 1017.8 1017.1 0.0
28/05:00am 16.0 13.7 7.5 57 4.3 SE 9 17 5 9 1017.8 1017.1 0.0
28/04:30am 16.4 14.1 7.6 56 4.4 SE 9 13 5 7 1017.7 1017.0 0.0
28/04:00am 16.8 15.0 8.0 56 4.5 SE 7 13 4 7 1017.8 1017.1 0.0
28/03:30am 17.1 15.3 8.0 55 4.7 SE 7 19 4 10 1018.0 1017.3 0.0
28/03:00am 17.5 15.7 8.1 54 4.8 SE 7 15 4 8 1018.0 1017.3 0.0
28/02:30am 18.1 16.0 8.1 52 5.2 ESE 9 17 5 9 1018.2 1017.5 0.0
28/02:00am 18.4 15.9 8.1 51 5.3 SE 11 17 6 9 1018.2 1017.5 0.0
28/01:30am 18.7 16.6 8.4 51 5.4 SE 9 17 5 9 1018.3 1017.6 0.0
28/01:00am 19.2 16.8 8.5 50 5.6 SE 11 20 6 11 1018.2 1017.5 0.0
28/12:30am 19.5 17.1 8.8 50 5.6 SE 11 26 6 14 1018.2 1017.5 0.0
28/12:00am 19.9 17.5 8.6 48 6.0 SE 11 19 6 10 1018.2 1017.5 0.0
 
Date/Time
CST
Temp
°C
App
Temp
°C
Dew
Point
°C
Rel
Hum
%
Delta-T
°C
Wind Press
QNH
hPa
Press
MSL
hPa
Rain since
9am
mm
Dir  Spd
km/h
Gust
km/h
Spd
kts
Gust
kts
27/11:30pm 20.4 18.0 8.7 47 6.2 SSE 11 20 6 11 1018.1 1017.4 0.0
27/11:00pm 21.0 18.6 8.6 45 6.6 SSE 11 15 6 8 1018.0 1017.3 0.0
27/10:30pm 21.6 19.2 8.8 44 6.8 SSE 11 17 6 9 1018.0 1017.3 0.0
27/10:00pm 22.2 19.8 8.7 42 7.2 SE 11 17 6 9 1017.8 1017.1 0.0
27/09:30pm 22.8 20.9 8.9 41 7.5 SE 9 19 5 10 1017.5 1016.8 0.0
27/09:00pm 23.3 21.0 9.0 40 7.7 SE 11 19 6 10 1017.2 1016.5 0.0
27/08:30pm 23.5 21.2 9.1 40 7.8 SE 11 19 6 10 1016.9 1016.2 0.0
27/08:00pm 23.5 21.6 9.1 40 7.8 SSE 9 13 5 7 1016.6 1015.9 0.0
27/07:30pm 23.5 21.9 8.8 39 7.9 SSE 7 11 4 6 1016.2 1015.5 0.0
27/07:00pm 24.6 22.8 8.1 35 8.9 SSE 7 11 4 6 1015.8 1015.1 0.0
27/06:30pm 25.9 23.8 8.4 33 9.5 SSE 9 15 5 8 1015.5 1014.8 0.0
27/06:00pm 27.1 25.3 8.0 30 10.4 SE 7 11 4 6 1015.2 1014.4 0.0
27/05:30pm 28.8 26.2 7.9 27 11.4 SSE 11 19 6 10 1014.8 1014.0 0.0
27/05:00pm 29.7 27.2 8.2 26 11.9 SE 11 19 6 10 1014.4 1013.6 0.0
27/04:30pm 30.0 27.4 7.8 25 12.2 SE 11 19 6 10 1014.2 1013.4 0.0
27/04:00pm 30.7 29.0 8.4 25 12.4 SE 7 17 4 9 1014.1 1013.3 0.0
27/03:30pm 30.8 28.6 7.9 24 12.7 ESE 9 19 5 10 1014.0 1013.2 0.0
27/03:00pm 30.4 27.8 7.6 24 12.5 ESE 11 19 6 10 1014.2 1013.4 0.0
27/02:30pm 29.9 27.7 7.8 25 12.2 SE 9 17 5 9 1014.5 1013.7 0.0
27/02:00pm 30.3 28.2 8.1 25 12.3 ESE 9 17 5 9 1014.9 1014.1 0.0
27/01:30pm 29.1 26.1 7.7 26 11.7 ESE 13 22 7 12 1015.4 1014.6 0.0
27/01:00pm 29.1 27.0 8.2 27 11.5 SE 9 19 5 10 1015.8 1015.1 0.0

Other Formats:

Comma delimited format used in spreadsheet applications
http://www.bom.gov.au/fwo/IDD60801/IDD60801.94234.axf

JavaScript Object Notation format (JSON) in row-major order
http://www.bom.gov.au/fwo/IDD60801/IDD60801.94234.json